createdAt,value
2023-01-17T00:02:21.661Z,97.67
2023-01-17T00:05:08.399Z,97.82
2023-01-17T00:07:56.013Z,97.75
2023-01-17T00:10:25.402Z,97.78
2023-01-17T00:12:54.591Z,97.96
2023-01-17T00:15:23.634Z,98.12
2023-01-17T00:17:52.105Z,98.15
2023-01-17T00:20:40.239Z,98.14
2023-01-17T00:24:03.231Z,97.90
2023-01-17T00:26:32.640Z,97.85
2023-01-17T00:28:59.422Z,97.69
2023-01-17T00:31:27.594Z,97.77
2023-01-17T00:33:55.667Z,97.89
2023-01-17T00:36:22.448Z,97.97
2023-01-17T00:38:50.289Z,97.97
2023-01-17T00:41:17.478Z,97.97
2023-01-17T00:44:02.781Z,97.81
2023-01-17T00:46:50.455Z,97.63
2023-01-17T00:49:36.213Z,97.63
2023-01-17T00:52:22.784Z,97.53
2023-01-17T00:55:08.903Z,97.58
2023-01-17T00:57:54.252Z,97.84
2023-01-17T01:00:40.124Z,97.90
2023-01-17T01:03:28.841Z,97.75
2023-01-17T01:06:14.023Z,97.98
2023-01-17T01:08:59.224Z,98.10
2023-01-17T01:11:47.352Z,98.02
2023-01-17T01:14:34.843Z,97.98
2023-01-17T01:17:21.298Z,98.20
2023-01-17T01:20:08.930Z,97.92
2023-01-17T01:22:55.318Z,97.91
2023-01-17T01:25:42.033Z,98.03
2023-01-17T01:28:32.127Z,97.93
2023-01-17T01:31:25.390Z,97.83
2023-01-17T01:33:53.291Z,97.88
2023-01-17T01:36:21.705Z,98.10
2023-01-17T01:38:50.372Z,98.14
2023-01-17T01:41:20.272Z,97.93
2023-01-17T01:43:52.659Z,98.04
2023-01-17T01:46:56.528Z,98.02
2023-01-17T01:49:27.179Z,98.09
2023-01-17T01:51:56.567Z,97.92
2023-01-17T01:54:25.849Z,97.91
2023-01-17T01:56:54.228Z,98.10
2023-01-17T01:59:22.621Z,98.05
2023-01-17T02:01:51.672Z,98.05
2023-01-17T02:04:19.779Z,98.02
2023-01-17T02:06:49.227Z,98.10
2023-01-17T02:09:17.750Z,98.40
2023-01-17T02:11:45.950Z,98.31
2023-01-17T02:14:16.716Z,98.37
2023-01-17T02:17:03.688Z,98.02
2023-01-17T02:19:33.297Z,98.30
2023-01-17T02:22:17.616Z,97.99
2023-01-17T02:25:04.636Z,98.20
2023-01-17T02:27:40.488Z,98.04
2023-01-17T02:30:10.011Z,98.22
2023-01-17T02:32:42.676Z,98.21
2023-01-17T02:35:15.607Z,97.99
2023-01-17T02:38:18.634Z,98.05
2023-01-17T02:40:50.168Z,98.21
2023-01-17T02:43:18.863Z,98.20
2023-01-17T02:45:48.297Z,98.47
2023-01-17T02:48:20.327Z,98.39
2023-01-17T02:50:53.838Z,98.24
2023-01-17T02:53:47.847Z,98.30
2023-01-17T02:56:23.767Z,98.16
2023-01-17T02:59:08.967Z,98.10
2023-01-17T03:01:51.221Z,98.21
2023-01-17T03:04:28.299Z,98.24
2023-01-17T03:07:01.431Z,98.14
2023-01-17T03:09:29.697Z,98.28
2023-01-17T03:11:57.917Z,98.24
2023-01-17T03:14:24.698Z,98.27
2023-01-17T03:16:52.096Z,98.04
2023-01-17T03:19:19.971Z,98.26
2023-01-17T03:21:47.748Z,98.09
2023-01-17T03:24:18.417Z,98.34
2023-01-17T03:26:48.044Z,98.28
2023-01-17T03:29:17.204Z,98.50
2023-01-17T03:31:45.417Z,98.25
2023-01-17T03:34:12.975Z,98.48
2023-01-17T03:36:41.112Z,98.62
2023-01-17T03:39:08.948Z,98.79
2023-01-17T03:41:35.793Z,98.75
2023-01-17T03:44:04.318Z,98.73
2023-01-17T03:46:31.750Z,98.90
2023-01-17T03:48:58.808Z,98.90
2023-01-17T03:51:27.368Z,98.99
2023-01-17T03:53:53.983Z,99.23
2023-01-17T03:56:21.851Z,99.12
2023-01-17T03:58:51.207Z,99.08
2023-01-17T04:01:19.411Z,99.10
2023-01-17T04:03:46.900Z,98.98
2023-01-17T04:06:14.969Z,99.29
2023-01-17T04:08:41.837Z,99.12
2023-01-17T04:11:08.940Z,99.14
2023-01-17T04:13:39.527Z,99.17
2023-01-17T04:16:09.505Z,99.48
2023-01-17T04:18:36.315Z,99.56
2023-01-17T04:21:04.648Z,99.43
2023-01-17T04:23:32.113Z,99.50
2023-01-17T04:26:00.347Z,99.48
2023-01-17T04:28:27.168Z,99.71
2023-01-17T04:30:57.575Z,99.62
2023-01-17T04:33:24.493Z,99.61
2023-01-17T04:35:56.887Z,99.73
2023-01-17T04:38:25.423Z,99.83
2023-01-17T04:40:52.849Z,99.71
2023-01-17T04:43:19.629Z,99.85
2023-01-17T04:45:46.879Z,99.84
2023-01-17T04:48:13.937Z,99.73
2023-01-17T04:50:43.104Z,99.77
2023-01-17T04:53:10.997Z,99.79
2023-01-17T04:55:37.907Z,100.00
2023-01-17T04:58:05.837Z,99.82
2023-01-17T05:00:32.882Z,99.84
2023-01-17T05:03:00.814Z,100.00
2023-01-17T05:05:27.928Z,99.90
2023-01-17T05:07:56.570Z,99.94
2023-01-17T05:10:24.917Z,100.00
2023-01-17T05:12:59.150Z,99.89
2023-01-17T05:15:27.464Z,100.00
2023-01-17T05:17:55.443Z,100.00
2023-01-17T05:20:24.967Z,99.99
2023-01-17T05:22:56.965Z,99.98
2023-01-17T05:25:25.213Z,100.00
2023-01-17T05:27:53.532Z,100.00
2023-01-17T05:30:21.138Z,100.00
2023-01-17T05:32:52.819Z,100.00
2023-01-17T05:35:20.974Z,100.00
2023-01-17T05:37:49.379Z,100.00
2023-01-17T05:40:16.925Z,100.00
2023-01-17T05:42:51.673Z,100.00
2023-01-17T05:45:19.504Z,100.00
2023-01-17T05:47:47.928Z,100.00
2023-01-17T05:50:19.379Z,100.00
2023-01-17T05:52:56.682Z,100.00
2023-01-17T05:55:24.477Z,100.00
2023-01-17T05:57:53.847Z,100.00
2023-01-17T06:00:22.402Z,100.00
2023-01-17T06:02:53.001Z,100.00
2023-01-17T06:05:21.530Z,100.00
2023-01-17T06:07:52.011Z,100.00
2023-01-17T06:10:20.155Z,100.00
2023-01-17T06:12:47.587Z,100.00
2023-01-17T06:15:18.328Z,100.00
2023-01-17T06:17:45.136Z,100.00
2023-01-17T06:20:12.696Z,100.00
2023-01-17T06:22:43.481Z,100.00
2023-01-17T06:25:11.118Z,100.00
2023-01-17T06:27:39.448Z,100.00
2023-01-17T06:30:07.366Z,100.00
2023-01-17T06:32:35.134Z,100.00
2023-01-17T06:35:03.507Z,100.00
2023-01-17T06:37:31.048Z,100.00
2023-01-17T06:39:59.034Z,100.00
2023-01-17T06:42:26.099Z,100.00
2023-01-17T06:44:54.019Z,100.00
2023-01-17T06:47:21.068Z,100.00
2023-01-17T06:49:49.449Z,100.00
2023-01-17T06:52:17.067Z,100.00
2023-01-17T06:54:45.328Z,100.00
2023-01-17T06:57:12.073Z,100.00
2023-01-17T06:59:40.165Z,100.00
2023-01-17T07:02:09.187Z,100.00
2023-01-17T07:04:37.167Z,100.00
2023-01-17T07:07:05.050Z,100.00
2023-01-17T07:09:31.990Z,100.00
2023-01-17T07:12:02.113Z,100.00
2023-01-17T07:14:29.127Z,100.00
2023-01-17T07:16:56.887Z,100.00
2023-01-17T07:19:25.476Z,100.00
2023-01-17T07:21:54.094Z,100.00
2023-01-17T07:24:22.179Z,100.00
2023-01-17T07:26:50.108Z,100.00
2023-01-17T07:29:18.904Z,100.00
2023-01-17T07:31:46.173Z,100.00
2023-01-17T07:34:14.267Z,99.98
2023-01-17T07:36:44.497Z,99.85
2023-01-17T07:39:12.243Z,99.79
2023-01-17T07:41:41.597Z,99.90
2023-01-17T07:44:12.087Z,99.95
2023-01-17T07:46:39.346Z,99.61
2023-01-17T07:49:06.296Z,99.52
2023-01-17T07:51:34.828Z,99.43
2023-01-17T07:54:02.097Z,99.66
2023-01-17T07:56:30.119Z,99.63
2023-01-17T07:58:58.152Z,99.26
2023-01-17T08:01:27.675Z,99.44
2023-01-17T08:03:55.069Z,99.18
2023-01-17T08:06:24.366Z,99.09
2023-01-17T08:08:53.825Z,99.21
2023-01-17T08:11:21.637Z,99.17
2023-01-17T08:13:50.067Z,99.43
2023-01-17T08:16:17.163Z,99.22
2023-01-17T08:18:45.665Z,99.26
2023-01-17T08:21:14.584Z,99.26
2023-01-17T08:23:41.337Z,99.12
2023-01-17T08:26:08.116Z,99.12
2023-01-17T08:28:34.827Z,98.89
2023-01-17T08:31:10.846Z,99.02
2023-01-17T08:33:37.739Z,98.65
2023-01-17T08:36:04.585Z,98.65
2023-01-17T08:38:31.375Z,98.60
2023-01-17T08:41:00.845Z,98.48
2023-01-17T08:43:27.599Z,98.14
2023-01-17T08:45:56.141Z,97.89
2023-01-17T08:48:23.610Z,97.82
2023-01-17T08:50:50.346Z,97.66
2023-01-17T08:53:18.447Z,97.61
2023-01-17T08:55:45.148Z,97.27
2023-01-17T08:58:11.951Z,97.32
2023-01-17T09:00:38.733Z,97.44
2023-01-17T09:03:10.432Z,97.23
2023-01-17T09:05:37.178Z,97.30
2023-01-17T09:08:04.132Z,97.20
2023-01-17T09:10:30.968Z,96.95
2023-01-17T09:12:57.784Z,97.12
2023-01-17T09:15:24.735Z,97.28
2023-01-17T09:17:54.968Z,97.27
2023-01-17T09:20:23.607Z,97.14
2023-01-17T09:22:51.304Z,97.16
2023-01-17T09:25:18.052Z,96.96
2023-01-17T09:27:45.223Z,96.80
2023-01-17T09:30:12.164Z,96.71
2023-01-17T09:32:39.098Z,96.62
2023-01-17T09:35:07.980Z,96.59
2023-01-17T09:37:34.785Z,96.37
2023-01-17T09:40:01.610Z,96.32
2023-01-17T09:42:33.994Z,96.30
2023-01-17T09:45:00.793Z,96.18
2023-01-17T09:47:43.936Z,95.90
2023-01-17T09:50:24.685Z,96.06
2023-01-17T09:53:00.636Z,96.14
2023-01-17T09:55:31.047Z,95.86
2023-01-17T09:58:12.690Z,95.73
2023-01-17T10:00:45.677Z,95.77
2023-01-17T10:03:30.819Z,96.11
2023-01-17T10:05:57.698Z,95.81
2023-01-17T10:08:33.441Z,95.90
2023-01-17T10:11:03.134Z,96.05
2023-01-17T10:13:59.278Z,95.90
2023-01-17T10:16:44.700Z,95.78
2023-01-17T10:19:36.488Z,95.88
2023-01-17T10:22:26.971Z,95.69
2023-01-17T10:24:59.939Z,95.66
2023-01-17T10:27:30.647Z,95.46
2023-01-17T10:29:58.069Z,95.62
2023-01-17T10:32:27.283Z,95.22
2023-01-17T10:34:54.018Z,95.26
2023-01-17T10:37:40.430Z,95.37
2023-01-17T10:40:22.185Z,95.29
2023-01-17T10:43:01.067Z,95.00
2023-01-17T10:45:31.042Z,94.90
2023-01-17T10:48:12.046Z,94.80
2023-01-17T10:50:48.696Z,94.96
2023-01-17T10:53:31.456Z,95.05
2023-01-17T10:55:58.572Z,95.13
2023-01-17T10:58:25.395Z,95.47
2023-01-17T11:00:52.259Z,95.63
2023-01-17T11:03:23.980Z,95.54
2023-01-17T11:06:09.537Z,95.77
2023-01-17T11:08:50.887Z,95.46
2023-01-17T11:11:18.169Z,95.44
2023-01-17T11:13:46.116Z,95.47
2023-01-17T11:16:18.531Z,95.63
2023-01-17T11:18:45.848Z,95.48
2023-01-17T11:21:21.217Z,95.72
2023-01-17T11:23:49.646Z,95.57
2023-01-17T11:26:34.487Z,95.47
2023-01-17T11:29:14.431Z,95.59
2023-01-17T11:31:41.530Z,95.71
2023-01-17T11:34:18.569Z,95.65
2023-01-17T11:36:45.820Z,95.49
2023-01-17T11:39:18.571Z,95.73
2023-01-17T11:41:46.204Z,95.81
2023-01-17T11:44:33.638Z,95.68
2023-01-17T11:47:12.416Z,95.51
2023-01-17T11:49:40.125Z,95.63
2023-01-17T11:52:23.451Z,95.57
2023-01-17T11:54:50.869Z,95.54
2023-01-17T11:57:29.209Z,95.36
2023-01-17T12:00:02.728Z,95.50
2023-01-17T12:03:04.728Z,95.57
2023-01-17T12:05:31.459Z,95.65
2023-01-17T12:08:16.647Z,95.55
2023-01-17T12:10:53.693Z,95.75
2023-01-17T12:13:45.288Z,95.68
2023-01-17T12:16:33.129Z,95.52
2023-01-17T12:19:11.948Z,95.47
2023-01-17T12:21:53.670Z,95.79
2023-01-17T12:24:29.428Z,95.63
2023-01-17T12:27:19.545Z,95.54
2023-01-17T12:30:04.734Z,95.81
2023-01-17T12:32:51.625Z,95.53
2023-01-17T12:35:21.119Z,95.72
2023-01-17T12:38:03.811Z,95.66
2023-01-17T12:40:46.312Z,95.46
2023-01-17T12:43:22.019Z,95.48
2023-01-17T12:45:50.112Z,95.64
2023-01-17T12:48:18.672Z,95.59
2023-01-17T12:50:49.210Z,95.46
2023-01-17T12:53:16.009Z,95.58
2023-01-17T12:55:52.007Z,95.80
2023-01-17T12:58:23.287Z,95.73
2023-01-17T13:00:56.327Z,95.49
2023-01-17T13:03:41.840Z,95.67
2023-01-17T13:06:16.061Z,95.53
2023-01-17T13:08:46.588Z,95.80
2023-01-17T13:11:43.807Z,95.57
2023-01-17T13:14:10.888Z,95.63
2023-01-17T13:16:44.646Z,95.51
2023-01-17T13:19:37.511Z,95.73
2023-01-17T13:22:07.461Z,95.69
2023-01-17T13:24:40.476Z,95.67
2023-01-17T13:27:26.496Z,95.71
2023-01-17T13:30:03.538Z,95.56
2023-01-17T13:32:36.435Z,95.63
2023-01-17T13:35:22.076Z,95.51
2023-01-17T13:37:58.890Z,95.35
2023-01-17T13:40:38.014Z,95.52
2023-01-17T13:43:06.342Z,95.50
2023-01-17T13:45:35.050Z,95.51
2023-01-17T13:48:20.246Z,95.20
2023-01-17T13:50:49.481Z,95.18
2023-01-17T13:53:28.850Z,95.32
2023-01-17T13:56:02.416Z,95.13
2023-01-17T13:58:30.332Z,95.25
2023-01-17T14:00:58.642Z,95.24
2023-01-17T14:04:00.780Z,95.33
2023-01-17T14:06:41.238Z,95.27
2023-01-17T14:09:08.707Z,95.38
2023-01-17T14:11:49.576Z,95.16
2023-01-17T14:14:37.037Z,95.22
2023-01-17T14:17:28.501Z,95.38
2023-01-17T14:19:57.887Z,95.68
2023-01-17T14:22:31.412Z,95.67
2023-01-17T14:25:03.546Z,96.12
2023-01-17T14:27:34.685Z,96.08
2023-01-17T14:30:03.440Z,96.14
2023-01-17T14:32:33.238Z,96.27
2023-01-17T14:35:01.199Z,96.28
2023-01-17T14:37:42.335Z,96.07
2023-01-17T14:40:17.642Z,95.94
2023-01-17T14:42:47.212Z,95.98
2023-01-17T14:45:18.627Z,96.30
2023-01-17T14:47:46.143Z,96.13
2023-01-17T14:50:26.124Z,96.02
2023-01-17T14:53:15.767Z,96.05
2023-01-17T14:55:51.013Z,96.13
2023-01-17T14:58:18.707Z,96.23
2023-01-17T15:00:46.433Z,96.35
2023-01-17T15:03:14.872Z,96.41
2023-01-17T15:05:43.168Z,96.30
2023-01-17T15:08:13.219Z,96.19
2023-01-17T15:10:49.775Z,96.28
2023-01-17T15:13:27.701Z,96.39
2023-01-17T15:16:04.625Z,96.24
2023-01-17T15:18:42.392Z,96.51
2023-01-17T15:21:13.532Z,96.28
2023-01-17T15:23:55.531Z,96.29
2023-01-17T15:26:24.771Z,96.29
2023-01-17T15:28:55.594Z,96.63
2023-01-17T15:31:24.887Z,96.53
2023-01-17T15:33:56.725Z,96.24
2023-01-17T15:36:27.607Z,96.42
2023-01-17T15:39:18.458Z,96.53
2023-01-17T15:41:47.381Z,96.46
2023-01-17T15:44:46.760Z,96.55
2023-01-17T15:47:35.797Z,96.72
2023-01-17T15:50:27.940Z,96.79
2023-01-17T15:53:05.336Z,96.53
2023-01-17T15:55:37.058Z,96.68
2023-01-17T15:58:21.290Z,96.59
2023-01-17T16:00:50.289Z,96.76
2023-01-17T16:03:25.697Z,96.57
2023-01-17T16:05:54.438Z,96.70
2023-01-17T16:08:32.835Z,96.77
2023-01-17T16:11:02.505Z,96.94
2023-01-17T16:13:30.437Z,96.80
2023-01-17T16:16:15.294Z,96.66
2023-01-17T16:18:42.673Z,96.57
2023-01-17T16:21:19.786Z,96.83
2023-01-17T16:23:48.113Z,96.83
2023-01-17T16:26:15.488Z,96.91
2023-01-17T16:28:45.499Z,96.73
2023-01-17T16:31:13.824Z,96.92
2023-01-17T16:33:42.234Z,96.98
2023-01-17T16:36:14.913Z,96.83
2023-01-17T16:38:45.113Z,96.70
2023-01-17T16:41:13.973Z,96.64
2023-01-17T16:43:41.938Z,96.62
2023-01-17T16:46:10.976Z,96.54
2023-01-17T16:48:37.944Z,96.61
2023-01-17T16:51:08.823Z,96.64
2023-01-17T16:53:36.648Z,96.59
2023-01-17T16:56:08.903Z,96.87
2023-01-17T16:58:35.678Z,96.79
2023-01-17T17:01:03.029Z,96.98
2023-01-17T17:03:31.633Z,96.93
2023-01-17T17:06:01.050Z,96.96
2023-01-17T17:08:29.553Z,96.92
2023-01-17T17:11:07.452Z,97.03
2023-01-17T17:13:37.717Z,97.18
2023-01-17T17:16:15.472Z,97.10
2023-01-17T17:18:45.650Z,96.93
2023-01-17T17:21:13.769Z,97.06
2023-01-17T17:23:42.049Z,96.95
2023-01-17T17:26:08.969Z,97.20
2023-01-17T17:28:35.988Z,97.01
2023-01-17T17:31:05.732Z,96.93
2023-01-17T17:33:32.508Z,97.06
2023-01-17T17:36:04.339Z,97.37
2023-01-17T17:38:33.915Z,97.16
2023-01-17T17:41:09.681Z,97.33
2023-01-17T17:43:43.168Z,97.14
2023-01-17T17:46:10.186Z,97.36
2023-01-17T17:48:39.367Z,97.15
2023-01-17T17:51:07.287Z,97.14
2023-01-17T17:53:34.170Z,97.12
2023-01-17T17:56:02.592Z,97.13
2023-01-17T17:58:30.851Z,97.38
2023-01-17T18:01:04.040Z,97.25
2023-01-17T18:03:31.207Z,97.30
2023-01-17T18:06:08.569Z,97.12
2023-01-17T18:08:37.217Z,97.13
2023-01-17T18:11:15.166Z,97.22
2023-01-17T18:13:42.964Z,97.19
2023-01-17T18:16:14.513Z,97.49
2023-01-17T18:18:45.206Z,97.39
2023-01-17T18:21:12.539Z,97.46
2023-01-17T18:23:40.517Z,97.47
2023-01-17T18:26:15.933Z,97.41
2023-01-17T18:28:42.809Z,97.28
2023-01-17T18:31:09.559Z,97.53
2023-01-17T18:33:38.817Z,97.39
2023-01-17T18:36:06.814Z,97.49
2023-01-17T18:38:41.157Z,97.35
2023-01-17T18:41:15.879Z,97.29
2023-01-17T18:43:42.701Z,97.47
2023-01-17T18:46:10.198Z,97.25
2023-01-17T18:48:37.386Z,97.33
2023-01-17T18:51:05.849Z,97.54
2023-01-17T18:53:33.336Z,97.53
2023-01-17T18:56:01.132Z,97.49
2023-01-17T18:58:29.295Z,97.28
2023-01-17T19:01:05.613Z,97.60
2023-01-17T19:03:32.573Z,97.31
2023-01-17T19:06:03.247Z,97.52
2023-01-17T19:08:30.478Z,97.53
2023-01-17T19:10:57.557Z,97.35
2023-01-17T19:13:25.049Z,97.27
2023-01-17T19:15:52.199Z,97.28
2023-01-17T19:18:18.975Z,97.36
2023-01-17T19:20:46.075Z,97.35
2023-01-17T19:23:13.098Z,97.18
2023-01-17T19:25:39.769Z,97.46
2023-01-17T19:28:06.556Z,97.45
2023-01-17T19:30:34.408Z,97.44
2023-01-17T19:33:01.209Z,97.65
2023-01-17T19:35:28.097Z,97.54
2023-01-17T19:37:55.823Z,97.60
2023-01-17T19:40:22.727Z,97.61
2023-01-17T19:42:49.607Z,97.65
2023-01-17T19:45:16.439Z,97.57
2023-01-17T19:47:43.316Z,97.66
2023-01-17T19:50:12.308Z,97.64
2023-01-17T19:52:39.933Z,97.68
2023-01-17T19:55:12.569Z,97.71
2023-01-17T19:57:40.645Z,97.82
2023-01-17T20:00:08.697Z,97.82
2023-01-17T20:02:39.552Z,98.02
2023-01-17T20:05:06.724Z,97.95
2023-01-17T20:07:33.830Z,97.65
2023-01-17T20:10:00.620Z,97.68
2023-01-17T20:12:27.290Z,97.76
2023-01-17T20:14:54.569Z,97.82
2023-01-17T20:17:21.437Z,97.92
2023-01-17T20:19:48.278Z,97.89
2023-01-17T20:22:14.950Z,97.86
2023-01-17T20:24:41.688Z,97.69
2023-01-17T20:27:08.452Z,97.93
2023-01-17T20:29:35.297Z,98.00
2023-01-17T20:32:02.135Z,97.72
2023-01-17T20:34:28.976Z,97.69
2023-01-17T20:36:57.629Z,98.00
2023-01-17T20:39:24.549Z,97.89
2023-01-17T20:41:52.169Z,98.14
2023-01-17T20:44:19.747Z,98.08
2023-01-17T20:46:48.192Z,97.78
2023-01-17T20:49:16.936Z,97.78
2023-01-17T20:51:44.660Z,97.87
2023-01-17T20:54:15.790Z,97.83
2023-01-17T20:56:43.000Z,97.79
2023-01-17T20:59:14.604Z,97.82
2023-01-17T21:01:43.789Z,98.04
2023-01-17T21:04:11.177Z,97.69
2023-01-17T21:06:39.737Z,97.75
2023-01-17T21:09:07.510Z,97.64
2023-01-17T21:11:34.478Z,97.77
2023-01-17T21:14:01.774Z,97.77
2023-01-17T21:16:28.646Z,97.91
2023-01-17T21:18:55.443Z,98.09
2023-01-17T21:21:23.659Z,98.03
2023-01-17T21:23:51.607Z,98.15
2023-01-17T21:26:19.411Z,98.04
2023-01-17T21:28:46.902Z,97.74
2023-01-17T21:31:20.489Z,97.78
2023-01-17T21:33:47.727Z,97.82
2023-01-17T21:36:14.918Z,97.92
2023-01-17T21:38:41.856Z,98.05
2023-01-17T21:41:08.547Z,98.05
2023-01-17T21:43:35.370Z,97.91
2023-01-17T21:46:03.472Z,98.21
2023-01-17T21:48:30.416Z,98.09
2023-01-17T21:51:02.927Z,98.19
2023-01-17T21:53:30.288Z,98.11
2023-01-17T21:56:19.734Z,98.29
2023-01-17T21:58:48.328Z,98.06
2023-01-17T22:01:18.112Z,98.15
2023-01-17T22:03:48.414Z,97.98
2023-01-17T22:06:15.262Z,97.93
2023-01-17T22:08:42.007Z,98.08
2023-01-17T22:11:11.085Z,98.31
2023-01-17T22:13:38.487Z,98.05
2023-01-17T22:16:07.258Z,98.31
2023-01-17T22:18:36.252Z,98.33
2023-01-17T22:21:04.539Z,98.19
2023-01-17T22:23:31.233Z,98.46
2023-01-17T22:26:01.769Z,98.36
2023-01-17T22:28:29.609Z,98.44
2023-01-17T22:30:56.375Z,98.31
2023-01-17T22:33:23.211Z,98.18
2023-01-17T22:35:57.161Z,98.15
2023-01-17T22:38:24.008Z,98.07
2023-01-17T22:40:50.657Z,98.11
2023-01-17T22:43:17.428Z,97.86
2023-01-17T22:45:45.990Z,98.13
2023-01-17T22:48:12.746Z,98.11
2023-01-17T22:50:39.450Z,98.07
2023-01-17T22:53:06.256Z,97.84
2023-01-17T22:55:32.984Z,98.00
2023-01-17T22:57:59.796Z,98.04
2023-01-17T23:00:26.477Z,98.16
2023-01-17T23:02:53.515Z,97.84
2023-01-17T23:05:20.486Z,98.02
2023-01-17T23:07:49.292Z,98.27
2023-01-17T23:10:36.248Z,98.21
2023-01-17T23:13:03.152Z,98.44
2023-01-17T23:15:48.591Z,98.39
2023-01-17T23:18:34.087Z,98.31
2023-01-17T23:21:00.809Z,98.58
2023-01-17T23:23:27.530Z,98.52
2023-01-17T23:25:59.137Z,98.62
2023-01-17T23:28:25.909Z,98.54
2023-01-17T23:30:52.571Z,98.52
2023-01-17T23:33:19.347Z,98.23
2023-01-17T23:35:46.472Z,98.35
2023-01-17T23:38:26.237Z,98.16
2023-01-17T23:41:17.687Z,98.28
2023-01-17T23:43:44.480Z,98.58
2023-01-17T23:46:12.603Z,98.49
2023-01-17T23:48:39.379Z,98.47
2023-01-17T23:51:08.896Z,98.68
2023-01-17T23:53:36.828Z,98.67
2023-01-17T23:56:23.176Z,98.41
2023-01-17T23:58:49.972Z,98.35
